GIB weather

Gibraltar Airport
Gibraltar, Gibraltar

Public forecast

Using degrees Celsius for public forecast. Weather courtesy of forecast.io.

Current aviation weather report (METAR) for Gibraltar Airport

Retrieved 2019/10/21 00:50 UTC (56 minutes ago):

LXGB 210050Z AUTO 29005KT 9999 // NCD 15/11 Q1016

Aviation forecast (TAF) for Gibraltar Airport

Forecast is more than 12 hours old.

Retrieved 2019/05/20 18:00 UTC (5 months ago):

TAF TAF LXGB 201634Z 2018/2222 26012KT CAVOK